Time;durP1;ratioP1;P1;durP2;ratioP2;P2;SDS_P1;SDS_P2;PMS_P1;PMS_P2;Temp;Humidity;BMP_temperature;BMP_pressure;BME280_temperature;BME280_humidity;BME280_pressure;Samples;Min_cycle;Max_cycle;Signal;HPM_P1;HPM_P2
2024/03/09 00:00:28;;;;;;;11.90;9.70;;;;;;;0.38;78.90;101820.58;105003;1257;64258;-68
2024/03/09 00:03:14;;;;;;;9.80;8.80;;;;;;;0.36;79.19;101819.55;104999;1255;138175;-68
2024/03/09 00:05:41;;;;;;;13.20;9.30;;;;;;;0.39;79.13;101820.11;105038;1254;61372;-68
2024/03/09 00:08:09;;;;;;;10.20;8.90;;;;;;;0.44;79.39;101818.77;104972;1254;138116;-68
2024/03/09 00:10:35;;;;;;;10.50;8.50;;;;;;;0.48;79.40;101818.29;104965;1254;74138;-68
2024/03/09 00:13:09;;;;;;;9.30;7.80;;;;;;;0.51;79.41;101812.67;104830;1254;138865;-68
2024/03/09 00:15:37;;;;;;;8.30;7.10;;;;;;;0.57;79.63;101807.60;106613;1257;72122;-68
2024/03/09 00:18:04;;;;;;;13.40;10.30;;;;;;;0.63;79.46;101808.25;105113;1255;61260;-68
2024/03/09 00:20:37;;;;;;;10.90;8.90;;;;;;;0.68;79.48;101803.65;104948;1258;138417;-68
2024/03/09 00:23:07;;;;;;;10.10;8.20;;;;;;;0.73;79.66;101799.76;104981;1254;73964;-68
2024/03/09 00:25:34;;;;;;;9.50;7.50;;;;;;;0.80;79.50;101799.65;106257;1254;138379;-68
2024/03/09 00:28:01;;;;;;;9.00;7.90;;;;;;;0.85;79.58;101800.23;105153;1255;72808;-68
2024/03/09 00:30:31;;;;;;;10.20;8.30;;;;;;;0.88;79.46;101790.45;105021;1254;61274;-69
2024/03/09 00:32:59;;;;;;;10.60;8.30;;;;;;;0.91;79.40;101788.27;104910;1255;137533;-69
2024/03/09 00:35:29;;;;;;;11.50;9.20;;;;;;;0.94;79.48;101784.69;104870;1260;74077;-69
2024/03/09 00:37:57;;;;;;;10.50;9.40;;;;;;;0.95;79.37;101783.91;104872;1259;137468;-69
2024/03/09 00:40:30;;;;;;;11.60;9.90;;;;;;;0.97;79.29;101782.35;107028;1254;73511;-70
2024/03/09 00:43:01;;;;;;;10.10;9.00;;;;;;;0.96;78.92;101780.36;105011;1254;61351;-71
2024/03/09 00:45:30;;;;;;;16.30;13.30;;;;;;;0.92;79.26;101779.35;106063;1254;61416;-70
2024/03/09 00:47:56;;;;;;;35.70;25.80;;;;;;;0.93;79.32;101775.09;106115;1254;74796;-70
2024/03/09 00:50:26;;;;;;;38.30;25.30;;;;;;;0.96;79.21;101776.88;104951;1254;138375;-70
2024/03/09 00:52:53;;;;;;;42.50;27.10;;;;;;;0.98;79.36;101773.10;105070;1257;73203;-70
2024/03/09 00:55:19;;;;;;;18.50;15.10;;;;;;;1.02;79.37;101771.51;104880;1254;139734;-69
2024/03/09 00:57:50;;;;;;;12.40;11.10;;;;;;;1.05;79.32;101773.68;105064;1257;61244;-69
2024/03/09 01:00:18;;;;;;;14.50;10.70;;;;;;;1.08;79.35;101771.63;105191;1253;75309;-69
2024/03/09 01:02:49;;;;;;;13.30;10.70;;;;;;;1.10;79.30;101771.75;105144;1257;138348;-68
2024/03/09 01:05:19;;;;;;;20.40;14.70;;;;;;;1.12;79.31;101768.11;104784;1258;72595;-68
2024/03/09 01:07:46;;;;;;;26.70;19.50;;;;;;;1.13;79.32;101764.21;104855;1254;138478;-68
2024/03/09 01:10:12;;;;;;;15.70;12.70;;;;;;;1.12;79.09;101757.27;105046;1257;61256;-68
2024/03/09 01:12:39;;;;;;;11.20;9.80;;;;;;;1.17;79.35;101758.46;104960;1254;75518;-68
2024/03/09 01:15:07;;;;;;;13.10;11.00;;;;;;;1.18;79.24;101758.02;104924;1257;137435;-69
2024/03/09 01:17:37;;;;;;;12.80;9.60;;;;;;;1.18;79.16;101757.36;105071;1256;72354;-69
2024/03/09 01:20:07;;;;;;;12.40;10.90;;;;;;;1.19;79.24;101757.77;105000;1255;137633;-70
2024/03/09 01:22:37;;;;;;;12.70;11.00;;;;;;;1.20;79.18;101755.27;106439;1256;61471;-70
2024/03/09 01:25:06;;;;;;;14.30;10.10;;;;;;;1.20;79.17;101753.36;104852;1257;137846;-68
2024/03/09 01:27:33;;;;;;;12.40;9.80;;;;;;;1.18;79.18;101753.56;106102;1257;67049;-69
2024/03/09 01:30:00;;;;;;;11.50;10.00;;;;;;;1.13;79.07;101750.55;104932;1257;73582;-70
2024/03/09 01:32:29;;;;;;;12.60;9.70;;;;;;;1.13;79.16;101750.75;104972;1254;138446;-69
2024/03/09 01:34:56;;;;;;;14.70;9.70;;;;;;;1.11;79.03;101756.27;104919;1260;61264;-68
2024/03/09 01:37:23;;;;;;;15.00;11.20;;;;;;;1.07;79.09;101754.40;104892;1254;138728;-67
2024/03/09 01:39:50;;;;;;;15.70;11.00;;;;;;;1.08;79.29;101752.44;104916;1254;67117;-69
2024/03/09 01:42:18;;;;;;;12.00;9.70;;;;;;;1.09;79.31;101751.14;105164;1257;72117;-68
2024/03/09 01:44:47;;;;;;;10.90;6.60;;;;;;;1.11;79.15;101745.23;105048;1254;139722;-69
2024/03/09 01:47:16;;;;;;;9.30;6.40;;;;;;;1.00;78.90;101740.40;105152;1258;61212;-69
2024/03/09 01:49:42;;;;;;;6.70;5.90;;;;;;;1.00;79.30;101739.35;104897;1254;138857;-69
2024/03/09 01:52:09;;;;;;;12.00;8.20;;;;;;;1.03;79.23;101741.14;104930;1257;66883;-69
2024/03/09 01:54:37;;;;;;;8.00;5.80;;;;;;;1.09;79.35;101741.63;104848;1256;75135;-70
2024/03/09 01:57:04;;;;;;;9.60;6.20;;;;;;;1.14;79.28;101745.67;104850;1254;137400;-69
2024/03/09 01:59:31;;;;;;;9.50;6.70;;;;;;;1.10;79.15;101741.52;105050;1254;61142;-70
2024/03/09 02:01:58;;;;;;;11.90;6.90;;;;;;;1.02;79.08;101739.30;104874;1258;137878;-70
2024/03/09 02:04:26;;;;;;;10.60;6.30;;;;;;;1.02;79.16;101736.36;105019;1254;67164;-70
2024/03/09 02:06:54;;;;;;;7.60;6.40;;;;;;;1.01;79.24;101737.33;105197;1257;73027;-70
2024/03/09 02:09:21;;;;;;;10.70;7.90;;;;;;;1.00;79.27;101732.80;104953;1254;137244;-70
2024/03/09 02:11:48;;;;;;;9.50;8.20;;;;;;;0.98;79.27;101731.58;105000;1259;61355;-70
2024/03/09 02:14:16;;;;;;;12.20;8.30;;;;;;;0.95;79.17;101734.29;104947;1257;138578;-68
2024/03/09 02:16:43;;;;;;;11.60;8.00;;;;;;;0.91;79.00;101732.61;104983;1257;67375;-68
2024/03/09 02:19:13;;;;;;;9.70;7.50;;;;;;;0.88;79.27;101732.00;104912;1260;138460;-68
2024/03/09 02:21:40;;;;;;;11.30;8.50;;;;;;;0.88;79.30;101728.42;105730;1257;61195;-68
2024/03/09 02:24:07;;;;;;;11.70;8.00;;;;;;;0.92;79.55;101727.54;104738;1254;61334;-69
2024/03/09 02:26:37;;;;;;;13.10;8.10;;;;;;;0.99;79.60;101725.61;109103;1254;138240;-68
2024/03/09 02:29:05;;;;;;;14.10;8.00;;;;;;;1.04;79.63;101722.36;105730;1259;65985;-68
2024/03/09 02:31:32;;;;;;;10.40;8.20;;;;;;;1.04;79.20;101719.42;105890;1255;139010;-69
2024/03/09 02:34:01;;;;;;;11.30;8.00;;;;;;;1.06;79.24;101715.80;104906;1257;61406;-69
2024/03/09 02:36:29;;;;;;;11.60;8.70;;;;;;;1.09;79.11;101715.35;105416;1254;61264;-68
2024/03/09 02:38:56;;;;;;;11.70;8.80;;;;;;;1.13;79.31;101711.68;104907;1254;137618;-68
2024/03/09 02:41:24;;;;;;;14.30;9.80;;;;;;;1.16;79.24;101713.81;109093;1256;66502;-69
2024/03/09 02:43:53;;;;;;;13.30;9.50;;;;;;;1.16;79.21;101712.41;105803;1253;137530;-68
2024/03/09 02:46:21;;;;;;;12.90;9.60;;;;;;;1.14;79.24;101707.65;105365;1254;61270;-68
2024/03/09 02:48:48;;;;;;;14.60;10.00;;;;;;;1.14;79.25;101709.73;104979;1256;61435;-68
2024/03/09 02:51:16;;;;;;;13.30;10.40;;;;;;;1.15;79.16;101706.66;104922;1268;138359;-68
2024/03/09 02:53:43;;;;;;;15.30;10.60;;;;;;;1.12;79.08;101707.25;104961;1259;67096;-69
2024/03/09 02:56:13;;;;;;;12.30;10.40;;;;;;;1.04;79.15;101712.52;105028;1255;138289;-67
2024/03/09 02:58:41;;;;;;;14.10;10.50;;;;;;;1.02;79.14;101710.60;105004;1259;61407;-66
2024/03/09 03:01:10;;;;;;;12.30;9.80;;;;;;;1.01;79.29;101709.73;104915;1257;139213;-66
2024/03/09 03:03:55;;;;;;;13.60;10.50;;;;;;;1.05;79.42;101707.61;104920;1256;74648;-66
2024/03/09 03:06:21;;;;;;;13.70;11.00;;;;;;;1.09;79.64;101702.39;105002;1257;66958;-66
2024/03/09 03:08:49;;;;;;;13.20;10.50;;;;;;;1.13;79.42;101699.59;104898;1254;138897;-66
2024/03/09 03:11:16;;;;;;;14.80;11.10;;;;;;;1.14;79.15;101700.21;105047;1257;61367;-66
2024/03/09 03:13:45;;;;;;;13.60;10.90;;;;;;;1.13;79.37;101700.98;108867;1254;139534;-66
2024/03/09 03:16:31;;;;;;;18.40;12.10;;;;;;;1.14;79.33;101696.91;106364;1255;74721;-66
2024/03/09 03:18:58;;;;;;;13.60;10.50;;;;;;;1.18;79.39;101698.08;109175;1253;64690;-67
2024/03/09 03:21:25;;;;;;;14.20;11.30;;;;;;;1.23;79.42;101696.91;109062;1254;137486;-68
2024/03/09 03:23:52;;;;;;;16.00;11.60;;;;;;;1.26;79.33;101696.99;109150;1254;58954;-67
2024/03/09 03:26:20;;;;;;;13.60;11.20;;;;;;;1.26;79.14;101697.11;107073;1255;137559;-66
2024/03/09 03:28:48;;;;;;;19.70;11.60;;;;;;;1.23;79.08;101697.05;109122;1254;74709;-66
2024/03/09 03:31:18;;;;;;;14.70;11.10;;;;;;;1.22;78.97;101696.14;108998;1254;138410;-67
2024/03/09 03:33:45;;;;;;;15.00;10.70;;;;;;;1.21;79.13;101695.51;108954;1254;71232;-66
2024/03/09 03:36:15;;;;;;;17.00;11.50;;;;;;;1.21;79.08;101692.95;105805;1256;61145;-65
2024/03/09 03:38:42;;;;;;;17.40;11.30;;;;;;;1.24;79.11;101691.80;107450;1257;138274;-65
2024/03/09 03:41:09;;;;;;;15.40;11.60;;;;;;;1.23;78.88;101692.60;104986;1254;75760;-65
2024/03/09 03:43:37;;;;;;;17.40;11.70;;;;;;;1.21;78.98;101690.31;104920;1257;138652;-65
2024/03/09 03:46:05;;;;;;;16.30;12.10;;;;;;;1.22;79.04;101685.42;104928;1257;73294;-64
2024/03/09 03:48:32;;;;;;;15.40;12.00;;;;;;;1.26;79.16;101683.61;105038;1258;61157;-65
2024/03/09 03:50:59;;;;;;;14.70;12.30;;;;;;;1.25;78.95;101684.48;104904;1255;138024;-66
2024/03/09 03:53:27;;;;;;;16.40;13.30;;;;;;;1.23;78.96;101687.74;105086;1257;75565;-65
2024/03/09 03:55:54;;;;;;;17.30;13.10;;;;;;;1.18;78.90;101685.66;104867;1255;138094;-67
2024/03/09 03:58:22;;;;;;;15.90;12.20;;;;;;;1.14;78.99;101685.15;104975;1255;73343;-67
2024/03/09 04:00:49;;;;;;;22.40;14.30;;;;;;;1.08;78.93;101686.58;104933;1254;61300;-66
2024/03/09 04:03:16;;;;;;;17.30;13.60;;;;;;;1.08;79.26;101681.05;104636;1261;138197;-65
2024/03/09 04:05:44;;;;;;;21.30;14.30;;;;;;;1.11;79.19;101684.57;108916;1254;75527;-66
2024/03/09 04:08:11;;;;;;;17.60;14.40;;;;;;;1.13;79.26;101681.48;109077;1254;138546;-67
2024/03/09 04:10:38;;;;;;;17.70;14.60;;;;;;;1.15;79.31;101681.04;106799;1254;72401;-66
2024/03/09 04:13:05;;;;;;;18.60;14.80;;;;;;;1.19;79.23;101680.28;104873;1255;138474;-67
2024/03/09 04:15:33;;;;;;;19.70;14.10;;;;;;;1.22;79.15;101680.95;109032;1254;61213;-66
2024/03/09 04:18:04;;;;;;;19.30;15.00;;;;;;;1.23;79.12;101682.05;109177;1253;74455;-66
2024/03/09 04:20:34;;;;;;;20.70;14.90;;;;;;;1.24;79.21;101681.09;108969;1254;138788;-66
2024/03/09 04:23:04;;;;;;;19.50;15.60;;;;;;;1.24;78.99;101681.55;109116;1253;73205;-66
2024/03/09 04:25:35;;;;;;;22.40;14.10;;;;;;;1.26;79.28;101682.41;106888;1258;139148;-65
2024/03/09 04:28:03;;;;;;;20.60;15.70;;;;;;;1.30;79.00;101680.63;105049;1257;61366;-65
2024/03/09 04:30:33;;;;;;;20.00;15.50;;;;;;;1.26;78.83;101677.62;105002;1254;76232;-65
2024/03/09 04:33:04;;;;;;;19.50;14.50;;;;;;;1.25;78.91;101677.52;108062;1253;137583;-66
2024/03/09 04:35:31;;;;;;;18.80;15.70;;;;;;;1.29;79.30;101679.40;108739;1255;72450;-65
2024/03/09 04:37:58;;;;;;;25.10;18.80;;;;;;;1.28;79.14;101675.35;104673;1254;138608;-66
2024/03/09 04:40:25;;;;;;;23.30;17.60;;;;;;;1.28;79.00;101673.96;104810;1254;61161;-66
2024/03/09 04:42:51;;;;;;;23.80;17.40;;;;;;;1.28;79.02;101671.69;105094;1254;75119;-66
2024/03/09 04:45:19;;;;;;;21.80;17.30;;;;;;;1.29;79.08;101669.52;104857;1257;137635;-66
2024/03/09 04:47:46;;;;;;;22.60;16.80;;;;;;;1.28;79.14;101664.63;104835;1254;73475;-67
2024/03/09 04:50:17;;;;;;;22.90;18.30;;;;;;;1.30;79.33;101666.13;104964;1259;138437;-66
2024/03/09 04:52:48;;;;;;;22.20;16.80;;;;;;;1.26;78.90;101666.36;104947;1256;61264;-67
2024/03/09 04:55:18;;;;;;;25.30;19.10;;;;;;;1.22;78.98;101668.08;105432;1257;139193;-67
2024/03/09 04:57:45;;;;;;;25.40;18.60;;;;;;;1.18;78.96;101663.30;109030;1253;66565;-66
2024/03/09 05:00:15;;;;;;;23.00;17.30;;;;;;;1.19;78.99;101662.19;109209;1254;72860;-66
2024/03/09 05:02:43;;;;;;;24.10;17.00;;;;;;;1.18;79.02;101658.84;109001;1254;138409;-67
2024/03/09 05:05:11;;;;;;;22.40;17.40;;;;;;;1.19;79.03;101660.23;109016;1255;59657;-66
2024/03/09 05:07:40;;;;;;;23.10;18.80;;;;;;;1.21;79.05;101662.30;109058;1254;138787;-65
2024/03/09 05:10:08;;;;;;;22.20;17.50;;;;;;;1.21;78.95;101666.14;109124;1253;66322;-66
2024/03/09 05:12:35;;;;;;;27.30;19.50;;;;;;;1.22;78.96;101665.86;109199;1254;72698;-67
2024/03/09 05:15:02;;;;;;;23.70;19.00;;;;;;;1.22;79.08;101665.75;109084;1254;137941;-68
2024/03/09 05:17:29;;;;;;;23.50;18.40;;;;;;;1.26;79.17;101666.34;109111;1254;60187;-67
2024/03/09 05:19:57;;;;;;;27.30;20.40;;;;;;;1.28;79.00;101664.59;108821;1254;138204;-67
2024/03/09 05:22:24;;;;;;;26.60;20.00;;;;;;;1.31;79.08;101659.30;109181;1254;67140;-67
2024/03/09 05:24:52;;;;;;;25.90;21.40;;;;;;;1.32;79.04;101656.98;105960;1255;73199;-70
2024/03/09 05:27:19;;;;;;;24.00;19.80;;;;;;;1.28;78.89;101658.37;105051;1255;138462;-69
2024/03/09 05:29:45;;;;;;;28.20;21.40;;;;;;;1.18;78.80;101657.27;105180;1258;61226;-70
2024/03/09 05:32:12;;;;;;;25.80;19.50;;;;;;;1.16;78.95;101661.45;104971;1255;138313;-71
2024/03/09 05:34:40;;;;;;;26.30;20.50;;;;;;;1.18;79.19;101658.81;105024;1254;66961;-69
2024/03/09 05:37:07;;;;;;;26.70;20.10;;;;;;;1.23;79.22;101662.46;104888;1257;138609;-67
2024/03/09 05:39:37;;;;;;;27.60;21.60;;;;;;;1.24;79.23;101664.10;105001;1254;61271;-68
2024/03/09 05:42:04;;;;;;;29.10;20.30;;;;;;;1.24;79.32;101665.34;105034;1257;61228;-68
2024/03/09 05:44:34;;;;;;;24.90;20.00;;;;;;;1.28;79.30;101663.57;105836;1254;138517;-68
2024/03/09 05:47:01;;;;;;;25.70;20.00;;;;;;;1.26;79.06;101663.95;104843;1254;65402;-69
2024/03/09 05:49:28;;;;;;;30.00;20.80;;;;;;;1.21;79.10;101668.73;106694;1253;138002;-68
2024/03/09 05:51:55;;;;;;;26.10;21.10;;;;;;;1.20;79.27;101672.81;105382;1254;61190;-67
2024/03/09 05:54:22;;;;;;;27.20;20.50;;;;;;;1.20;79.28;101673.11;104823;1254;61352;-68
2024/03/09 05:56:51;;;;;;;26.00;20.60;;;;;;;1.22;79.19;101674.71;104729;1254;137808;-67
2024/03/09 05:59:17;;;;;;;26.10;20.40;;;;;;;1.27;79.35;101672.11;105054;1255;66546;-67
2024/03/09 06:01:44;;;;;;;27.50;21.10;;;;;;;1.33;79.46;101674.30;104822;1256;138302;-67
2024/03/09 06:04:11;;;;;;;24.50;20.20;;;;;;;1.38;79.41;101671.75;104939;1257;60178;-66
2024/03/09 06:06:39;;;;;;;33.50;23.00;;;;;;;1.39;79.22;101667.99;104976;1254;61287;-66
2024/03/09 06:09:07;;;;;;;27.20;22.10;;;;;;;1.37;79.33;101669.80;104776;1255;138369;-66
2024/03/09 06:11:34;;;;;;;25.40;20.60;;;;;;;1.42;79.42;101672.23;105060;1257;66984;-66
2024/03/09 06:14:04;;;;;;;29.10;21.20;;;;;;;1.51;79.65;101668.98;104837;1258;138742;-68
2024/03/09 06:16:31;;;;;;;32.10;22.10;;;;;;;1.60;79.48;101670.65;105035;1258;61254;-67
2024/03/09 06:18:57;;;;;;;30.70;22.20;;;;;;;1.66;79.39;101665.25;104939;1257;61173;-67
2024/03/09 06:21:24;;;;;;;31.00;21.10;;;;;;;1.71;79.19;101665.66;104979;1254;138972;-67
2024/03/09 06:23:53;;;;;;;27.60;20.30;;;;;;;1.72;78.99;101665.51;104823;1260;67185;-67
2024/03/09 06:26:19;;;;;;;30.20;21.30;;;;;;;1.77;79.06;101667.42;104725;1254;137957;-66
2024/03/09 06:28:46;;;;;;;27.00;20.60;;;;;;;1.83;79.08;101664.56;104837;1254;61352;-66
2024/03/09 06:31:13;;;;;;;26.30;20.40;;;;;;;1.88;79.09;101667.71;104744;1258;137987;-67
2024/03/09 06:33:40;;;;;;;26.90;21.30;;;;;;;1.92;78.93;101668.76;104837;1258;73808;-67
2024/03/09 06:36:08;;;;;;;28.60;21.80;;;;;;;1.98;79.00;101667.63;104867;1256;66455;-67
2024/03/09 06:38:35;;;;;;;33.90;22.00;;;;;;;2.06;78.94;101668.73;104749;1260;137837;-66
2024/03/09 06:41:02;;;;;;;29.20;22.20;;;;;;;2.13;78.93;101672.54;104917;1254;61267;-66
2024/03/09 06:43:31;;;;;;;30.10;22.50;;;;;;;2.21;78.84;101671.39;104754;1256;138564;-66
2024/03/09 06:45:59;;;;;;;28.10;21.30;;;;;;;2.25;78.59;101669.27;104912;1255;75593;-65
2024/03/09 06:48:27;;;;;;;38.70;22.40;;;;;;;2.33;78.72;101668.80;104928;1254;64583;-65
2024/03/09 06:50:54;;;;;;;25.70;21.30;;;;;;;2.39;78.54;101667.62;107581;1254;139313;-65
2024/03/09 06:53:24;;;;;;;30.10;21.80;;;;;;;2.41;78.20;101666.39;105044;1254;61259;-64
2024/03/09 06:55:51;;;;;;;26.20;21.70;;;;;;;2.49;78.33;101669.23;104836;1255;138309;-65
2024/03/09 06:58:18;;;;;;;30.10;21.30;;;;;;;2.57;78.23;101669.15;104861;1258;75401;-64
2024/03/09 07:00:45;;;;;;;27.20;21.50;;;;;;;2.64;78.22;101664.61;105081;1256;66563;-64
2024/03/09 07:03:12;;;;;;;26.70;21.00;;;;;;;2.74;78.27;101663.63;105007;1254;137671;-65
2024/03/09 07:05:40;;;;;;;29.90;21.90;;;;;;;2.78;77.68;101662.66;108308;1254;58975;-66
2024/03/09 07:08:09;;;;;;;29.10;21.70;;;;;;;2.83;77.76;101660.56;104759;1258;138001;-65
2024/03/09 07:10:36;;;;;;;29.10;22.00;;;;;;;2.81;77.46;101661.32;104996;1258;74140;-65
2024/03/09 07:13:04;;;;;;;26.20;21.30;;;;;;;2.87;77.75;101663.81;104864;1254;65760;-66
2024/03/09 07:15:31;;;;;;;29.70;23.90;;;;;;;2.95;77.63;101662.65;109148;1254;74066;-66
2024/03/09 07:17:57;;;;;;;30.30;23.70;;;;;;;2.96;77.34;101659.94;106791;1254;61227;-65
2024/03/09 07:20:27;;;;;;;29.10;23.20;;;;;;;2.93;77.01;101660.27;104886;1254;138878;-65
2024/03/09 07:22:55;;;;;;;27.30;22.80;;;;;;;2.84;76.67;101662.21;105019;1255;75188;-66
2024/03/09 07:25:26;;;;;;;29.20;22.70;;;;;;;2.78;77.05;101660.57;104973;1256;138490;-64
2024/03/09 07:27:55;;;;;;;29.40;22.40;;;;;;;2.89;77.27;101661.05;105296;1254;73723;-64
2024/03/09 07:30:22;;;;;;;28.90;22.30;;;;;;;2.97;77.23;101660.20;105007;1254;61296;-64
2024/03/09 07:32:49;;;;;;;29.10;22.30;;;;;;;3.12;77.47;101662.80;109120;1254;138436;-64
2024/03/09 07:35:18;;;;;;;31.70;23.40;;;;;;;3.27;77.41;101660.73;107276;1255;74791;-65
2024/03/09 07:37:58;;;;;;;26.60;21.50;;;;;;;3.41;77.21;101662.20;105605;1257;137850;-66
2024/03/09 07:40:25;;;;;;;29.70;22.70;;;;;;;3.52;77.01;101660.66;104371;1255;72180;-65
2024/03/09 07:42:55;;;;;;;26.90;22.10;;;;;;;3.63;76.89;101655.70;108326;1256;60398;-66
2024/03/09 07:45:23;;;;;;;28.50;22.40;;;;;;;3.80;76.79;101653.31;104721;1253;137693;-64
2024/03/09 07:47:50;;;;;;;28.50;22.40;;;;;;;3.93;76.53;101650.54;108447;1255;76826;-65
2024/03/09 07:50:18;;;;;;;29.20;22.50;;;;;;;4.05;76.51;101649.09;108496;1253;138250;-61
2024/03/09 07:52:53;;;;;;;31.90;23.00;;;;;;;4.26;76.58;101642.13;108444;1254;71979;-62
2024/03/09 07:55:21;;;;;;;28.00;22.00;;;;;;;4.35;75.86;101644.62;108281;1257;140976;-61
2024/03/09 07:57:48;;;;;;;28.90;22.30;;;;;;;4.24;75.32;101645.81;108314;1255;61545;-61
2024/03/09 08:00:28;;;;;;;30.20;22.30;;;;;;;4.17;75.19;101650.41;108282;1254;75724;-62
2024/03/09 08:02:55;;;;;;;29.90;22.40;;;;;;;4.27;75.39;101649.84;108326;1256;139525;-62
2024/03/09 08:05:23;;;;;;;30.30;22.50;;;;;;;4.36;75.28;101648.98;108439;1254;71791;-63
2024/03/09 08:07:49;;;;;;;27.00;23.20;;;;;;;4.46;75.23;101646.17;108148;1256;138294;-64
2024/03/09 08:10:17;;;;;;;29.40;22.10;;;;;;;4.62;75.29;101643.02;108438;1254;61205;-64
2024/03/09 08:12:45;;;;;;;29.20;22.70;;;;;;;4.75;75.06;101646.77;108393;1254;74983;-64
2024/03/09 08:15:12;;;;;;;29.20;22.90;;;;;;;4.79;74.73;101648.98;108225;1254;138378;-64
2024/03/09 08:17:39;;;;;;;27.30;21.90;;;;;;;4.83;74.49;101646.27;108182;1254;228535;-65
2024/03/09 08:20:07;;;;;;;25.80;21.60;;;;;;;4.75;73.89;101647.27;108319;1254;138935;-64
2024/03/09 08:22:36;;;;;;;27.40;21.70;;;;;;;4.65;73.95;101641.96;108652;1255;60400;-64
2024/03/09 08:25:07;;;;;;;28.30;22.70;;;;;;;4.70;74.12;101639.34;108989;1253;137780;-64
2024/03/09 08:27:34;;;;;;;95.00;49.20;;;;;;;4.81;74.19;101640.94;109096;1254;65433;-65
2024/03/09 08:30:05;;;;;;;112.30;62.90;;;;;;;5.00;74.36;101641.56;109130;1254;73679;-64
2024/03/09 08:32:35;;;;;;;60.10;40.60;;;;;;;5.06;73.84;101641.77;109012;1254;138371;-64
2024/03/09 08:35:08;;;;;;;37.50;27.80;;;;;;;5.18;73.99;101643.68;109136;1254;60035;-63
2024/03/09 08:37:41;;;;;;;71.30;42.50;;;;;;;5.36;74.04;101639.55;108849;1253;138479;-63
2024/03/09 08:40:08;;;;;;;31.00;25.10;;;;;;;5.54;73.78;101644.27;109101;1253;67706;-63
2024/03/09 08:42:36;;;;;;;31.60;24.00;;;;;;;5.63;73.37;101639.41;109070;1254;73130;-64
2024/03/09 08:45:08;;;;;;;31.50;25.00;;;;;;;5.61;72.94;101640.21;109069;1254;138380;-61
2024/03/09 08:47:36;;;;;;;40.30;35.80;;;;;;;5.58;72.67;101634.08;109021;1254;59452;-61
2024/03/09 08:50:04;;;;;;;51.50;45.90;;;;;;;5.57;72.61;101633.66;105237;1256;137775;-61
2024/03/09 08:52:33;;;;;;;30.30;25.00;;;;;;;5.60;72.52;101635.45;108899;1254;66973;-63
2024/03/09 08:55:00;;;;;;;29.80;23.80;;;;;;;5.67;72.60;101636.20;105796;1254;71801;-62
2024/03/09 08:57:27;;;;;;;26.90;22.70;;;;;;;5.75;72.47;101635.27;108748;1254;137606;-61
2024/03/09 08:59:59;;;;;;;31.80;24.60;;;;;;;5.79;72.26;101632.71;109054;1254;61937;-62
2024/03/09 09:02:29;;;;;;;30.40;23.90;;;;;;;5.67;71.83;101634.81;108588;1256;138130;-62
2024/03/09 09:04:56;;;;;;;32.90;25.20;;;;;;;5.56;71.72;101631.70;108610;1253;66288;-62
2024/03/09 09:07:23;;;;;;;33.60;25.20;;;;;;;5.35;71.31;101632.70;108505;1254;140636;-62
2024/03/09 09:09:50;;;;;;;29.40;23.90;;;;;;;5.13;71.26;101631.39;108378;1255;59633;-61
2024/03/09 09:12:17;;;;;;;29.10;22.40;;;;;;;4.96;71.25;101628.08;107319;1254;60920;-63
2024/03/09 09:14:44;;;;;;;33.00;23.60;;;;;;;4.87;71.44;101635.00;108231;1255;139189;-62
2024/03/09 09:17:11;;;;;;;33.40;25.20;;;;;;;4.80;71.55;101633.86;108465;1255;66417;-62
2024/03/09 09:19:38;;;;;;;36.00;24.70;;;;;;;4.82;71.81;101632.09;108451;1253;139763;-62
2024/03/09 09:22:06;;;;;;;38.20;26.20;;;;;;;4.88;71.88;101631.40;108725;1253;59290;-62
2024/03/09 09:24:33;;;;;;;35.30;27.00;;;;;;;5.00;72.05;101625.89;108812;1254;59155;-63
2024/03/09 09:27:00;;;;;;;31.70;24.80;;;;;;;5.24;72.32;101621.61;108339;1258;139991;-62
2024/03/09 09:29:28;;;;;;;36.20;26.50;;;;;;;5.43;72.18;101623.59;108665;1254;67637;-62
2024/03/09 09:32:00;;;;;;;35.70;27.50;;;;;;;5.56;71.80;101624.73;108570;1257;139923;-62
2024/03/09 09:34:33;;;;;;;39.60;28.70;;;;;;;5.59;71.49;101621.97;108684;1254;60750;-63
2024/03/09 09:37:00;;;;;;;36.30;27.80;;;;;;;5.61;71.41;101619.33;105071;1257;61240;-63
2024/03/09 09:39:32;;;;;;;30.40;25.00;;;;;;;5.74;71.48;101619.19;104544;1256;139330;-63
2024/03/09 09:41:59;;;;;;;34.40;28.10;;;;;;;5.88;71.47;101618.45;104653;1258;67960;-63
2024/03/09 09:44:29;;;;;;;32.50;25.20;;;;;;;6.05;71.33;101616.98;104212;1258;138110;-63
2024/03/09 09:46:56;;;;;;;32.40;25.70;;;;;;;6.19;71.14;101613.07;104420;1256;59877;-62
2024/03/09 09:49:23;;;;;;;32.90;25.50;;;;;;;6.27;70.96;101610.02;104500;1258;138259;-63
2024/03/09 09:51:51;;;;;;;34.50;25.00;;;;;;;6.30;70.65;101607.08;104559;1258;73631;-62
2024/03/09 09:54:24;;;;;;;34.30;25.60;;;;;;;6.37;70.57;101606.42;108618;1253;68461;-61
2024/03/09 09:56:53;;;;;;;31.20;25.60;;;;;;;6.53;70.71;101605.88;108349;1254;138913;-62
2024/03/09 09:59:20;;;;;;;30.40;24.20;;;;;;;6.65;70.38;101602.02;105571;1257;61242;-62
2024/03/09 10:01:46;;;;;;;32.80;24.40;;;;;;;6.74;70.22;101600.94;104636;1257;139453;-61
2024/03/09 10:04:14;;;;;;;29.00;23.80;;;;;;;6.73;69.88;101601.27;104614;1256;75918;-61
2024/03/09 10:06:40;;;;;;;35.00;26.40;;;;;;;6.69;69.67;101595.04;104235;1256;66254;-61
2024/03/09 10:09:07;;;;;;;38.20;25.10;;;;;;;6.53;69.27;101594.89;104688;1259;138499;-61
2024/03/09 10:11:34;;;;;;;33.60;25.20;;;;;;;6.36;69.31;101595.73;104051;1258;62574;-61
2024/03/09 10:14:01;;;;;;;32.30;25.90;;;;;;;6.24;69.15;101592.61;103837;1254;138247;-62
2024/03/09 10:16:32;;;;;;;31.30;24.30;;;;;;;6.10;69.24;101592.68;104001;1254;76576;-61
2024/03/09 10:19:02;;;;;;;30.80;23.60;;;;;;;6.01;69.42;101587.86;104894;1254;64508;-62
2024/03/09 10:21:37;;;;;;;34.60;25.80;;;;;;;5.88;69.12;101584.80;104720;1256;73896;-62
2024/03/09 10:24:05;;;;;;;36.00;26.30;;;;;;;5.67;69.03;101587.95;104339;1256;62251;-63
2024/03/09 10:26:33;;;;;;;36.10;26.40;;;;;;;5.45;69.16;101586.34;104776;1253;137867;-62
2024/03/09 10:29:02;;;;;;;37.60;25.50;;;;;;;5.33;69.48;101584.02;109088;1254;75321;-63
2024/03/09 10:31:30;;;;;;;33.60;25.20;;;;;;;5.25;69.65;101581.64;108682;1257;139270;-63
2024/03/09 10:33:57;;;;;;;36.00;25.80;;;;;;;5.12;69.61;101583.34;108652;1254;70523;-62
2024/03/09 10:36:25;;;;;;;36.00;25.70;;;;;;;4.88;69.50;101583.11;108699;1256;59606;-61
2024/03/09 10:38:54;;;;;;;38.10;27.20;;;;;;;4.69;69.60;101582.74;108466;1255;137685;-61
2024/03/09 10:41:22;;;;;;;39.30;27.90;;;;;;;4.48;69.64;101582.84;108617;1254;76731;-62
2024/03/09 10:43:52;;;;;;;35.60;25.40;;;;;;;4.27;69.81;101575.96;108501;1256;138058;-61
2024/03/09 10:46:24;;;;;;;37.00;27.50;;;;;;;4.07;69.85;101578.50;108484;1254;73898;-62
2024/03/09 10:48:54;;;;;;;34.50;25.00;;;;;;;3.90;70.26;101573.43;108749;1254;60654;-63
2024/03/09 10:51:30;;;;;;;36.30;25.80;;;;;;;3.88;70.63;101569.84;108312;1257;139129;-62
2024/03/09 10:54:13;;;;;;;36.70;26.80;;;;;;;3.94;71.07;101566.07;108843;1258;75635;-63
2024/03/09 10:56:39;;;;;;;35.70;26.50;;;;;;;4.02;71.17;101566.24;108764;1254;137767;-63
2024/03/09 10:59:09;;;;;;;39.40;25.90;;;;;;;4.13;71.40;101559.11;108809;1258;72418;-63
2024/03/09 11:01:35;;;;;;;33.70;25.40;;;;;;;4.24;71.55;101561.00;108484;1254;138135;-62
2024/03/09 11:04:04;;;;;;;35.00;23.90;;;;;;;4.24;71.00;101559.66;108965;1255;59025;-62
2024/03/09 11:06:32;;;;;;;35.30;25.10;;;;;;;4.07;70.80;101561.14;109133;1253;74677;-62
2024/03/09 11:09:00;;;;;;;34.70;25.00;;;;;;;3.95;71.00;101556.22;108890;1256;138852;-62
2024/03/09 11:11:29;;;;;;;34.30;24.60;;;;;;;3.96;71.22;101557.33;109206;1254;70975;-62